Zemst, Belgium
Current Conditions -  °F | °C
As of 7:50 PM on Sunday 21 Dec 2014 (Local Time) from EBBR Reporting Station
Drizzle Drizzle  
Wind Chill: 36°   Ceiling: 1200
Heat Index: 45°   Visibility: 4mi
Dew Point: 41°   Wind: 21mph
Humidity: 87%   Direction: 230°SW
Pressure: 30.3"   Gusts: NA
Location:  50.98°N, 4.46°E
Report Text: EBBR 211850Z 23018KT 7000 -DZ SCT010 BKN012 07/05 Q1026 TEMPO 23020G30KT 4500 DZRA BKN008
Loading
Personal Weather Stations






























Interactive Weather Map New forecast layout! Learn more

10-Day Weather Forecast

Advertisements
Track Severe Weather on mobile